createdAt,value
2023-03-05T09:52:50.481Z,23.40
2023-03-05T09:55:29.776Z,22.63
2023-03-05T09:58:03.259Z,24.30
2023-03-05T10:00:41.139Z,15.00
2023-03-05T10:03:25.531Z,9.27
2023-03-05T10:05:59.449Z,12.00
2023-03-05T10:08:37.398Z,13.53
2023-03-05T10:11:10.651Z,10.87
2023-03-05T10:13:42.157Z,9.10
2023-03-05T10:16:41.597Z,6.60
2023-03-05T10:19:21.251Z,6.57
2023-03-05T10:22:02.240Z,14.47
2023-03-05T10:24:47.545Z,6.57
2023-03-05T10:27:20.158Z,9.07
2023-03-05T10:30:08.690Z,7.37
2023-03-05T10:32:53.410Z,9.43
2023-03-05T10:35:48.999Z,8.30
2023-03-05T10:38:41.598Z,9.13
2023-03-05T10:41:17.044Z,8.10
2023-03-05T10:43:57.965Z,8.00
2023-03-05T10:46:32.817Z,7.50
2023-03-05T10:49:02.211Z,6.70
2023-03-05T10:51:41.094Z,10.10
2023-03-05T10:54:28.989Z,10.47
2023-03-05T10:57:18.408Z,8.87
2023-03-05T10:59:53.801Z,11.30
2023-03-05T11:02:22.073Z,8.23
2023-03-05T11:04:52.727Z,6.67
2023-03-05T11:07:19.446Z,7.77
2023-03-05T11:10:05.052Z,5.63
2023-03-05T11:12:36.699Z,12.23
2023-03-05T11:15:09.490Z,11.07
2023-03-05T11:18:04.082Z,9.13
2023-03-05T11:20:36.454Z,9.43
2023-03-05T11:23:14.237Z,7.87
2023-03-05T11:25:52.875Z,6.60
2023-03-05T11:28:32.272Z,6.77
2023-03-05T11:31:18.344Z,8.20
2023-03-05T11:34:35.042Z,8.67
2023-03-05T11:37:04.553Z,6.73
2023-03-05T11:39:35.248Z,9.90
2023-03-05T11:42:11.993Z,7.97
2023-03-05T11:44:49.888Z,7.97
2023-03-05T11:47:48.042Z,9.63
2023-03-05T11:50:20.852Z,7.23
2023-03-05T11:53:09.700Z,5.63
2023-03-05T11:58:22.812Z,7.40
2023-03-05T12:00:50.217Z,12.20
2023-03-05T12:03:20.797Z,6.40
2023-03-05T12:06:13.616Z,11.90
2023-03-05T12:08:46.563Z,6.03
2023-03-05T12:11:20.565Z,7.13
2023-03-05T12:13:56.133Z,7.20
2023-03-05T12:16:59.960Z,7.03
2023-03-05T12:19:34.507Z,5.57
2023-03-05T12:22:02.857Z,6.43
2023-03-05T12:24:29.703Z,3.53
2023-03-05T12:27:10.410Z,3.77
2023-03-05T12:29:41.595Z,5.50
2023-03-05T12:32:25.499Z,6.13
2023-03-05T12:35:04.474Z,6.77
2023-03-05T12:37:31.271Z,5.80
2023-03-05T12:39:58.025Z,4.40
2023-03-05T12:42:32.499Z,4.33
2023-03-05T12:45:16.007Z,4.63
2023-03-05T12:47:47.596Z,7.33
2023-03-05T12:50:26.840Z,7.17
2023-03-05T12:53:12.263Z,8.53
2023-03-05T12:55:45.754Z,8.60
2023-03-05T12:58:25.928Z,11.43
2023-03-05T13:00:58.822Z,8.67
2023-03-05T13:03:33.113Z,8.80
2023-03-05T13:06:05.443Z,8.73
2023-03-05T13:08:37.614Z,7.73
2023-03-05T13:11:15.826Z,7.57
2023-03-05T13:13:44.852Z,8.50
2023-03-05T13:16:28.980Z,7.80
2023-03-05T13:18:59.289Z,10.23
2023-03-05T13:21:31.410Z,8.70
2023-03-05T13:24:03.205Z,8.47
2023-03-05T13:26:40.983Z,6.60
2023-03-05T13:29:21.942Z,6.93
2023-03-05T13:32:01.589Z,9.37
2023-03-05T13:34:46.677Z,7.13
2023-03-05T13:37:21.673Z,8.50
2023-03-05T13:39:54.517Z,10.07
2023-03-05T13:42:31.372Z,8.30
2023-03-05T13:45:07.403Z,6.67
2023-03-05T13:47:36.115Z,7.70
2023-03-05T13:50:08.887Z,11.07
2023-03-05T13:52:38.355Z,6.70
2023-03-05T13:55:13.733Z,6.77
2023-03-05T13:57:43.381Z,9.57
2023-03-05T14:00:33.467Z,8.03
2023-03-05T14:03:08.567Z,12.90
2023-03-05T14:08:02.418Z,10.10
2023-03-05T14:15:26.543Z,7.45
2023-03-05T14:18:09.296Z,5.80
2023-03-05T14:20:36.033Z,8.30
2023-03-05T14:23:27.335Z,7.60
2023-03-05T14:28:38.393Z,5.10
2023-03-05T14:31:16.385Z,4.90
2023-03-05T14:33:44.138Z,4.97
2023-03-05T14:41:32.412Z,9.70
2023-03-05T14:48:52.752Z,8.00
2023-03-05T14:51:20.786Z,10.23
2023-03-05T14:53:50.976Z,10.80
2023-03-05T14:56:28.683Z,6.50
2023-03-05T14:59:00.583Z,9.23
2023-03-05T15:01:27.421Z,9.00
2023-03-05T15:03:54.199Z,9.17
2023-03-05T15:06:30.505Z,11.13
2023-03-05T15:08:57.230Z,11.37
2023-03-05T15:11:23.944Z,9.23
2023-03-05T15:13:50.599Z,11.73
2023-03-05T15:16:18.989Z,9.50
2023-03-05T15:18:45.752Z,9.23
2023-03-05T15:21:12.508Z,9.63
2023-03-05T15:23:39.662Z,7.40
2023-03-05T15:26:09.157Z,8.03
2023-03-05T15:28:39.514Z,9.00
2023-03-05T15:31:06.627Z,7.23
2023-03-05T15:33:34.134Z,7.10
2023-03-05T15:36:01.217Z,6.23
2023-03-05T15:38:27.918Z,8.03
2023-03-05T15:40:54.650Z,10.37
2023-03-05T15:43:21.321Z,7.10
2023-03-05T15:45:48.269Z,8.90
2023-03-05T15:48:15.133Z,7.40
2023-03-05T15:50:43.858Z,10.20
2023-03-05T15:53:12.740Z,9.87
2023-03-05T15:55:40.614Z,9.10
2023-03-05T15:58:07.847Z,11.53
2023-03-05T16:00:37.332Z,10.77
2023-03-05T16:03:04.504Z,13.17
2023-03-05T16:05:33.216Z,16.33
2023-03-05T16:08:00.480Z,17.00
2023-03-05T16:10:28.991Z,15.73
2023-03-05T16:13:01.498Z,20.93
2023-03-05T16:15:28.754Z,14.93
2023-03-05T16:17:57.528Z,13.80
2023-03-05T16:20:24.245Z,17.10
2023-03-05T16:22:50.997Z,16.87
2023-03-05T16:25:18.567Z,13.67
2023-03-05T16:27:45.986Z,19.00
2023-03-05T16:30:15.189Z,13.90
2023-03-05T16:32:43.971Z,14.87
2023-03-05T16:35:13.683Z,14.00
2023-03-05T16:40:10.502Z,13.20
2023-03-05T16:42:37.300Z,15.60
2023-03-05T16:45:05.090Z,15.13
2023-03-05T16:47:32.001Z,16.00
2023-03-05T16:49:59.212Z,16.80
2023-03-05T16:52:25.875Z,20.67
2023-03-05T16:54:52.816Z,16.67
2023-03-05T16:57:21.949Z,22.33
2023-03-05T16:59:48.571Z,19.90
2023-03-05T17:02:15.426Z,14.60
2023-03-05T17:04:42.590Z,16.20
2023-03-05T17:07:12.457Z,13.50
2023-03-05T17:09:39.719Z,17.20
2023-03-05T17:12:06.663Z,16.43
2023-03-05T17:14:33.306Z,16.60
2023-03-05T17:17:01.205Z,18.47
2023-03-05T17:19:28.097Z,18.17
2023-03-05T17:21:54.840Z,20.90
2023-03-05T17:24:22.762Z,24.10
2023-03-05T17:26:51.314Z,19.60
2023-03-05T17:29:19.594Z,21.33
2023-03-05T17:31:47.031Z,19.47
2023-03-05T17:34:14.621Z,20.80
2023-03-05T17:36:41.324Z,22.67
2023-03-05T17:39:08.754Z,17.80
2023-03-05T17:41:35.719Z,21.93
2023-03-05T17:44:02.448Z,17.93
2023-03-05T17:46:29.209Z,18.40
2023-03-05T17:48:56.078Z,14.77
2023-03-05T17:51:24.046Z,20.37
2023-03-05T17:53:50.837Z,18.40
2023-03-05T17:56:20.432Z,17.50
2023-03-05T17:58:47.516Z,16.27
2023-03-05T18:01:28.794Z,16.87
2023-03-05T18:03:56.005Z,16.60
2023-03-05T18:06:23.844Z,18.23
2023-03-05T18:08:51.072Z,19.37
2023-03-05T18:11:18.429Z,17.70
2023-03-05T18:13:45.186Z,16.63
2023-03-05T18:16:16.809Z,18.87
2023-03-05T18:18:44.416Z,22.67
2023-03-05T18:21:21.016Z,34.03
2023-03-05T18:23:48.297Z,29.20
2023-03-05T18:26:15.223Z,32.30
2023-03-05T18:28:41.928Z,16.67
2023-03-05T18:31:09.188Z,17.60
2023-03-05T18:33:35.889Z,16.67
2023-03-05T18:36:03.144Z,17.33
2023-03-05T18:38:31.377Z,15.63
2023-03-05T18:41:03.052Z,18.50
2023-03-05T18:43:30.955Z,18.90
2023-03-05T18:45:58.814Z,17.80
2023-03-05T18:48:25.895Z,17.10
2023-03-05T18:50:54.217Z,19.33
2023-03-05T18:53:21.896Z,18.27
2023-03-05T18:55:51.338Z,21.40
2023-03-05T18:58:18.700Z,19.77
2023-03-05T19:00:46.957Z,29.70
2023-03-05T19:03:15.292Z,21.17
2023-03-05T19:05:42.663Z,21.10
2023-03-05T19:08:09.753Z,22.40
2023-03-05T19:10:36.598Z,24.20
2023-03-05T19:13:15.844Z,18.53
2023-03-05T19:15:42.807Z,17.27
2023-03-05T19:18:11.206Z,19.93
2023-03-05T19:20:37.851Z,21.43
2023-03-05T19:23:04.495Z,21.10
2023-03-05T19:25:31.233Z,18.60
2023-03-05T19:27:59.014Z,17.97
2023-03-05T19:30:25.630Z,28.00
2023-03-05T19:32:53.485Z,16.77
